Time;durP1;ratioP1;P1;durP2;ratioP2;P2;SDS_P1;SDS_P2;PMS_P1;PMS_P2;Temp;Humidity;BMP_temperature;BMP_pressure;BME280_temperature;BME280_humidity;BME280_pressure;Samples;Min_cycle;Max_cycle;Signal;HPM_P1;HPM_P2
2023/06/16 00:00:12;;;;;;;7.55;2.97;;;;;;;18.77;65.87;101739.94;5133518;28;20051;-59
2023/06/16 00:02:41;;;;;;;8.18;3.20;;;;;;;18.72;66.25;101738.53;5133261;28;20536;-59
2023/06/16 00:05:11;;;;;;;6.40;3.03;;;;;;;18.71;68.04;101736.81;5133309;28;20482;-59
2023/06/16 00:07:39;;;;;;;9.02;3.08;;;;;;;18.73;68.82;101737.56;5130792;28;20505;-59
2023/06/16 00:10:09;;;;;;;5.35;2.63;;;;;;;18.76;68.92;101736.44;5129614;28;20088;-59
2023/06/16 00:12:40;;;;;;;5.07;2.80;;;;;;;18.65;68.21;101742.69;5128683;28;20096;-59
2023/06/16 00:15:10;;;;;;;8.38;3.28;;;;;;;18.57;67.70;101738.00;5129823;28;20058;-59
2023/06/16 00:17:44;;;;;;;6.43;3.40;;;;;;;18.56;71.45;101738.97;5132085;28;20047;-59
2023/06/16 00:20:14;;;;;;;5.88;3.00;;;;;;;18.58;73.73;101737.03;5135602;27;20118;-59
2023/06/16 00:22:47;;;;;;;7.65;3.00;;;;;;;18.54;74.07;101738.28;5134289;27;20047;-59
2023/06/16 00:25:19;;;;;;;6.43;3.22;;;;;;;18.39;74.77;101742.22;5134197;27;20095;-59
2023/06/16 00:27:47;;;;;;;5.22;2.70;;;;;;;18.45;74.57;101738.19;5137335;27;20042;-58
2023/06/16 00:30:16;;;;;;;7.07;3.22;;;;;;;18.33;75.49;101732.94;5118639;27;20607;-58
2023/06/16 00:32:45;;;;;;;6.32;2.80;;;;;;;18.23;76.28;101734.69;5137255;27;20474;-59
2023/06/16 00:35:14;;;;;;;9.75;3.80;;;;;;;18.28;74.87;101736.97;5136954;27;20516;-59
2023/06/16 00:37:42;;;;;;;9.40;3.00;;;;;;;18.26;74.46;101730.94;5137248;27;20104;-59
2023/06/16 00:40:11;;;;;;;6.15;3.20;;;;;;;18.17;74.97;101730.72;5136831;27;20047;-58
2023/06/16 00:42:41;;;;;;;6.70;2.90;;;;;;;18.15;75.35;101732.69;5134789;27;20039;-59
2023/06/16 00:45:10;;;;;;;8.18;3.40;;;;;;;18.11;74.49;101728.59;5133594;27;20047;-59
2023/06/16 00:47:38;;;;;;;6.18;3.10;;;;;;;18.11;76.20;101733.06;5136368;27;20043;-59
2023/06/16 00:50:10;;;;;;;7.40;3.00;;;;;;;18.04;76.52;101736.22;5136174;27;20524;-58
2023/06/16 00:52:39;;;;;;;7.22;2.72;;;;;;;18.03;77.90;101736.34;5115181;27;20142;-59
2023/06/16 00:55:11;;;;;;;6.43;3.15;;;;;;;18.06;77.10;101733.44;5134901;27;20074;-59
2023/06/16 00:57:41;;;;;;;6.07;3.25;;;;;;;18.00;77.74;101732.13;5136921;27;20148;-59
2023/06/16 01:00:11;;;;;;;6.35;2.95;;;;;;;18.01;79.54;101722.31;5136199;27;20047;-59
2023/06/16 01:02:39;;;;;;;7.32;3.33;;;;;;;17.96;78.26;101720.06;5133020;27;20498;-60
2023/06/16 01:05:09;;;;;;;7.10;2.97;;;;;;;17.81;77.63;101726.63;5132148;27;20050;-59
2023/06/16 01:07:43;;;;;;;8.18;3.20;;;;;;;17.71;79.64;101722.03;5134929;27;20445;-59
2023/06/16 01:10:18;;;;;;;9.35;3.90;;;;;;;17.74;79.39;101720.94;5115331;27;20070;-58
2023/06/16 01:12:56;;;;;;;7.05;3.17;;;;;;;17.69;79.71;101726.63;5131748;27;20035;-59
2023/06/16 01:15:27;;;;;;;8.25;3.25;;;;;;;17.62;76.84;101719.28;5133428;27;20043;-58
2023/06/16 01:17:59;;;;;;;6.80;3.10;;;;;;;17.66;76.01;101720.72;5134731;27;20051;-58
2023/06/16 01:20:38;;;;;;;8.57;3.15;;;;;;;17.61;75.28;101726.41;5136343;27;20051;-58
2023/06/16 01:23:15;;;;;;;8.63;3.30;;;;;;;17.51;75.68;101721.00;5136186;27;20494;-58
2023/06/16 01:25:49;;;;;;;9.60;3.35;;;;;;;17.40;75.64;101726.34;5136091;27;20043;-59
2023/06/16 01:28:20;;;;;;;7.03;2.95;;;;;;;17.44;74.90;101734.91;5136144;27;20047;-58
2023/06/16 01:30:52;;;;;;;10.63;3.28;;;;;;;17.45;75.86;101734.81;5134791;27;20100;-58
2023/06/16 01:33:24;;;;;;;6.95;3.00;;;;;;;17.46;76.25;101730.31;5135878;27;20047;-58
2023/06/16 01:35:54;;;;;;;6.63;3.37;;;;;;;17.38;75.18;101728.25;5136018;27;20072;-52
2023/06/16 01:38:24;;;;;;;5.68;3.13;;;;;;;17.32;75.47;101732.25;5136208;27;20043;-51
2023/06/16 01:40:56;;;;;;;5.63;2.97;;;;;;;17.32;77.59;101729.59;5135946;27;20051;-58
2023/06/16 01:43:24;;;;;;;5.70;3.10;;;;;;;17.32;78.06;101729.59;5135617;27;20050;-58
2023/06/16 01:45:53;;;;;;;8.95;3.70;;;;;;;17.35;78.37;101732.00;5135283;27;20096;-58
2023/06/16 01:48:22;;;;;;;5.75;3.10;;;;;;;17.28;78.98;101727.34;5134750;27;20081;-50
2023/06/16 01:50:51;;;;;;;5.90;3.22;;;;;;;17.28;80.26;101733.47;5131880;27;20047;-50
2023/06/16 01:53:20;;;;;;;6.22;2.92;;;;;;;17.13;81.78;101726.72;5132642;27;20055;-50
2023/06/16 01:55:48;;;;;;;7.32;3.47;;;;;;;17.16;82.37;101731.78;5135366;27;20047;-51
2023/06/16 01:58:19;;;;;;;8.15;3.40;;;;;;;17.15;82.80;101728.31;5135164;27;20047;-47
2023/06/16 02:00:53;;;;;;;8.25;3.38;;;;;;;17.13;83.43;101732.06;5135372;27;20043;-50
2023/06/16 02:03:29;;;;;;;9.30;3.05;;;;;;;17.03;83.87;101732.78;5134042;27;20039;-49
2023/06/16 02:06:06;;;;;;;6.95;3.30;;;;;;;17.10;83.19;101733.13;5131581;27;20130;-48
2023/06/16 02:08:35;;;;;;;6.60;3.45;;;;;;;17.11;83.14;101734.84;5134542;27;20731;-46
2023/06/16 02:11:04;;;;;;;6.13;3.30;;;;;;;17.04;83.26;101733.59;5135133;27;20088;-51
2023/06/16 02:13:34;;;;;;;8.68;3.47;;;;;;;16.99;84.41;101733.97;5115464;27;20047;-51
2023/06/16 02:16:03;;;;;;;6.13;3.22;;;;;;;16.96;86.19;101733.34;5132035;27;20572;-47
2023/06/16 02:18:32;;;;;;;7.70;3.10;;;;;;;16.88;86.69;101725.97;5115169;27;20103;-58
2023/06/16 02:21:03;;;;;;;9.18;3.25;;;;;;;16.79;87.86;101732.84;5135117;27;20059;-56
2023/06/16 02:23:31;;;;;;;8.63;3.72;;;;;;;16.85;87.37;101731.50;5132041;27;20047;-49
2023/06/16 02:25:59;;;;;;;5.88;3.40;;;;;;;16.85;87.05;101720.88;5113712;27;20058;-49
2023/06/16 02:28:27;;;;;;;6.32;3.33;;;;;;;16.77;88.11;101725.94;5133940;27;20050;-47
2023/06/16 02:30:57;;;;;;;7.03;3.53;;;;;;;16.82;87.70;101715.81;5131860;27;20067;-50
2023/06/16 02:33:26;;;;;;;6.45;3.60;;;;;;;16.77;87.85;101720.63;5133734;27;20046;-59
2023/06/16 02:35:58;;;;;;;7.13;3.70;;;;;;;16.69;88.63;101723.91;5134797;27;20035;-58
2023/06/16 02:38:26;;;;;;;7.43;3.70;;;;;;;16.63;86.59;101724.38;5131635;27;20355;-59
2023/06/16 02:40:54;;;;;;;7.95;3.60;;;;;;;16.59;85.85;101725.56;5130408;27;20501;-51
2023/06/16 02:43:22;;;;;;;6.85;3.10;;;;;;;16.55;84.76;101723.16;5130330;27;20043;-49
2023/06/16 02:45:51;;;;;;;6.25;3.50;;;;;;;16.52;85.02;101717.22;5115100;27;20477;-52
2023/06/16 02:48:21;;;;;;;8.93;3.67;;;;;;;16.46;85.86;101717.72;5115972;27;20098;-58
2023/06/16 02:50:49;;;;;;;8.30;3.72;;;;;;;16.44;86.78;101716.97;5134362;27;20055;-58
2023/06/16 02:53:18;;;;;;;10.13;3.90;;;;;;;16.37;88.74;101719.22;5133235;27;20062;-58
2023/06/16 02:55:47;;;;;;;7.63;4.07;;;;;;;16.31;90.75;101722.38;5130095;27;20039;-59
2023/06/16 02:58:15;;;;;;;7.18;3.67;;;;;;;16.26;90.81;101717.41;5129917;27;20039;-59
2023/06/16 03:00:46;;;;;;;7.55;3.47;;;;;;;16.24;89.81;101719.34;5131087;27;20134;-58
2023/06/16 03:03:14;;;;;;;8.48;3.80;;;;;;;16.26;88.94;101716.56;5133865;27;20107;-58
2023/06/16 03:05:44;;;;;;;7.95;3.75;;;;;;;16.21;89.16;101715.09;5134072;27;20043;-59
2023/06/16 03:08:13;;;;;;;7.20;3.35;;;;;;;16.22;88.92;101716.81;5132605;27;20061;-58
2023/06/16 03:10:41;;;;;;;6.80;3.60;;;;;;;16.17;88.87;101720.72;5111988;27;20108;-59
2023/06/16 03:13:09;;;;;;;7.57;3.72;;;;;;;16.12;89.16;101714.94;5132599;27;20043;-50
2023/06/16 03:15:37;;;;;;;7.28;3.88;;;;;;;16.10;88.53;101714.19;5133775;27;20128;-48
2023/06/16 03:18:06;;;;;;;9.90;4.43;;;;;;;15.98;89.66;101708.88;5133995;27;20398;-47
2023/06/16 03:20:34;;;;;;;8.63;3.92;;;;;;;15.94;90.67;101711.84;5133985;27;20050;-51
2023/06/16 03:23:04;;;;;;;8.10;4.10;;;;;;;15.96;90.81;101708.13;5115341;27;20083;-47
2023/06/16 03:25:32;;;;;;;8.40;4.20;;;;;;;15.90;91.75;101705.94;5133761;27;20117;-50
2023/06/16 03:28:01;;;;;;;8.95;4.10;;;;;;;15.92;92.99;101709.31;5115666;27;20039;-50
2023/06/16 03:30:29;;;;;;;7.97;3.70;;;;;;;15.86;92.96;101712.44;5133763;27;20390;-50
2023/06/16 03:32:57;;;;;;;7.38;4.32;;;;;;;15.83;93.75;101716.16;5133773;27;20047;-49
2023/06/16 03:35:25;;;;;;;8.48;3.90;;;;;;;15.90;93.40;101711.25;5133969;27;20500;-48
2023/06/16 03:37:53;;;;;;;7.78;4.35;;;;;;;15.83;92.98;101713.50;5115246;27;20059;-50
2023/06/16 03:40:23;;;;;;;9.20;4.15;;;;;;;15.82;93.45;101710.97;5111830;27;20050;-47
2023/06/16 03:42:51;;;;;;;9.13;3.80;;;;;;;15.84;93.92;101711.69;5128440;27;20046;-48
2023/06/16 03:45:19;;;;;;;7.18;3.80;;;;;;;15.83;93.54;101717.97;5111033;27;20043;-49
2023/06/16 03:47:47;;;;;;;8.07;4.13;;;;;;;15.79;93.11;101719.09;5129960;27;20043;-49
2023/06/16 03:50:15;;;;;;;7.93;4.47;;;;;;;15.82;92.61;101717.09;5131281;27;20043;-49
2023/06/16 03:52:44;;;;;;;7.60;3.92;;;;;;;15.78;93.52;101722.72;5130700;27;20047;-48
2023/06/16 03:55:13;;;;;;;7.45;3.95;;;;;;;15.77;93.47;101721.84;5128818;27;20058;-58
2023/06/16 03:57:43;;;;;;;9.30;4.60;;;;;;;15.83;94.41;101725.91;5133165;27;20043;-58
2023/06/16 04:00:12;;;;;;;10.32;4.30;;;;;;;15.86;93.83;101725.69;5133338;27;20100;-58
2023/06/16 04:02:42;;;;;;;8.48;4.35;;;;;;;15.85;95.20;101724.00;5133255;28;20039;-58
2023/06/16 04:05:10;;;;;;;9.63;4.18;;;;;;;15.84;94.51;101727.59;5133318;28;20103;-58
2023/06/16 04:07:38;;;;;;;8.10;4.43;;;;;;;15.85;95.94;101714.22;5133079;28;20043;-49
2023/06/16 04:10:07;;;;;;;7.50;3.90;;;;;;;15.88;95.70;101718.44;5129911;28;20117;-51
2023/06/16 04:12:36;;;;;;;8.35;4.22;;;;;;;15.83;98.63;101718.81;5128742;28;20051;-49
2023/06/16 04:15:06;;;;;;;8.82;4.32;;;;;;;15.90;99.83;101735.13;5129801;28;20434;-52
2023/06/16 04:17:34;;;;;;;8.18;4.10;;;;;;;15.85;100.00;101730.13;5132348;28;20045;-59
2023/06/16 04:20:05;;;;;;;7.93;4.30;;;;;;;15.85;100.00;101727.47;5132993;28;20520;-58
2023/06/16 04:22:36;;;;;;;7.72;4.07;;;;;;;15.78;100.00;101723.56;5133018;28;20049;-59
2023/06/16 04:25:09;;;;;;;7.53;3.97;;;;;;;15.85;100.00;101726.63;5133217;28;20087;-59
2023/06/16 04:27:37;;;;;;;9.23;4.15;;;;;;;15.88;100.00;101721.09;5133085;28;20054;-59
2023/06/16 04:30:08;;;;;;;10.00;4.07;;;;;;;15.84;100.00;101719.63;5131076;28;20078;-59
2023/06/16 04:32:37;;;;;;;8.23;4.28;;;;;;;15.91;100.00;101723.56;5130182;28;20059;-59
2023/06/16 04:35:06;;;;;;;8.63;4.50;;;;;;;15.97;100.00;101728.38;5132589;28;20465;-58
2023/06/16 04:37:34;;;;;;;6.35;3.42;;;;;;;15.95;100.00;101732.09;5129591;28;20505;-59
2023/06/16 04:40:04;;;;;;;10.35;3.85;;;;;;;15.88;100.00;101724.63;5130621;28;20043;-58
2023/06/16 04:42:34;;;;;;;8.85;4.03;;;;;;;15.79;100.00;101722.59;5129840;28;20047;-59
2023/06/16 04:45:02;;;;;;;9.77;4.30;;;;;;;15.76;100.00;101729.94;5129916;28;20047;-58
2023/06/16 04:47:32;;;;;;;8.15;4.20;;;;;;;15.77;100.00;101735.13;5129482;28;20047;-59
2023/06/16 04:50:01;;;;;;;8.27;4.40;;;;;;;15.84;100.00;101731.13;5129923;28;20051;-59
2023/06/16 04:52:30;;;;;;;8.85;4.25;;;;;;;15.92;100.00;101740.31;5132827;28;20134;-59
2023/06/16 04:54:58;;;;;;;7.28;4.30;;;;;;;15.88;100.00;101735.22;5112479;28;20075;-59
2023/06/16 04:57:26;;;;;;;8.05;4.28;;;;;;;15.87;100.00;101730.88;5127961;28;20061;-59
2023/06/16 04:59:54;;;;;;;8.77;4.50;;;;;;;15.82;100.00;101733.00;5111152;28;20078;-59
2023/06/16 05:02:22;;;;;;;9.02;4.20;;;;;;;15.79;100.00;101733.22;5129149;28;20047;-58
2023/06/16 05:04:52;;;;;;;10.18;4.72;;;;;;;15.85;100.00;101732.78;5129165;27;20051;-59
2023/06/16 05:07:20;;;;;;;10.88;4.70;;;;;;;15.98;100.00;101735.38;5132925;27;20135;-59
2023/06/16 05:09:48;;;;;;;9.95;4.43;;;;;;;16.06;100.00;101726.88;5135212;27;20046;-59
2023/06/16 05:12:16;;;;;;;7.32;4.28;;;;;;;16.04;100.00;101739.38;5136324;27;20057;-59
2023/06/16 05:14:45;;;;;;;8.80;4.82;;;;;;;16.00;100.00;101730.81;5136263;27;20554;-59
2023/06/16 05:17:13;;;;;;;11.90;4.50;;;;;;;16.01;100.00;101745.75;5136240;27;20043;-59
2023/06/16 05:19:41;;;;;;;8.40;4.85;;;;;;;16.05;100.00;101744.56;5136385;27;20043;-59
2023/06/16 05:22:10;;;;;;;8.98;5.22;;;;;;;16.06;100.00;101748.09;5136045;27;20035;-48
2023/06/16 05:24:38;;;;;;;11.90;5.03;;;;;;;16.12;100.00;101742.31;5132998;27;20584;-51
2023/06/16 05:27:07;;;;;;;12.50;4.95;;;;;;;16.12;100.00;101744.97;5132333;27;20466;-53
2023/06/16 05:29:35;;;;;;;14.00;4.95;;;;;;;16.14;100.00;101747.50;5135317;27;20043;-53
2023/06/16 05:32:04;;;;;;;11.77;4.70;;;;;;;16.22;100.00;101740.69;5133180;27;20051;-50
2023/06/16 05:34:32;;;;;;;10.63;4.82;;;;;;;16.26;100.00;101746.59;5134010;27;20039;-51
2023/06/16 05:37:00;;;;;;;15.57;5.00;;;;;;;16.30;100.00;101744.56;5135525;27;20039;-50
2023/06/16 05:39:33;;;;;;;11.15;5.05;;;;;;;16.31;100.00;101743.59;5132359;27;20047;-48
2023/06/16 05:42:01;;;;;;;9.38;4.65;;;;;;;16.39;100.00;101747.34;5131432;27;20050;-50
2023/06/16 05:44:29;;;;;;;10.38;5.05;;;;;;;16.41;100.00;101752.53;5133146;27;20070;-51
2023/06/16 05:46:58;;;;;;;8.13;5.10;;;;;;;16.46;100.00;101753.06;5135698;27;20047;-52
2023/06/16 05:49:26;;;;;;;11.95;4.97;;;;;;;16.57;100.00;101749.59;5135524;27;20043;-54
2023/06/16 05:51:56;;;;;;;10.38;4.85;;;;;;;16.60;100.00;101744.03;5135684;27;20062;-54
2023/06/16 05:54:24;;;;;;;11.68;4.78;;;;;;;16.70;100.00;101747.69;5131858;27;20036;-49
2023/06/16 05:56:54;;;;;;;7.80;4.93;;;;;;;16.83;100.00;101752.03;5132092;27;20557;-48
2023/06/16 05:59:22;;;;;;;9.52;5.10;;;;;;;16.88;99.24;101755.19;5133533;27;20043;-51
2023/06/16 06:01:50;;;;;;;11.60;4.82;;;;;;;16.98;100.00;101752.69;5131999;27;20073;-52
2023/06/16 06:04:21;;;;;;;9.98;4.55;;;;;;;17.05;98.05;101746.75;5134203;27;20080;-51
2023/06/16 06:06:49;;;;;;;11.88;4.88;;;;;;;17.17;97.20;101752.09;5132235;27;20477;-52
2023/06/16 06:09:21;;;;;;;13.05;5.28;;;;;;;17.27;100.00;101753.03;5132592;27;20039;-51
2023/06/16 06:11:49;;;;;;;10.52;4.65;;;;;;;17.40;100.00;101753.75;5135210;27;20055;-53
2023/06/16 06:14:19;;;;;;;11.15;5.07;;;;;;;17.54;91.71;101749.16;5135230;27;20039;-52
2023/06/16 06:16:47;;;;;;;9.68;4.90;;;;;;;17.71;90.60;101753.97;5134666;27;20051;-59
2023/06/16 06:19:19;;;;;;;10.50;5.07;;;;;;;17.78;87.15;101756.97;5131251;27;20051;-59
2023/06/16 06:21:47;;;;;;;12.68;4.32;;;;;;;17.94;87.88;101763.72;5131743;27;20063;-60
2023/06/16 06:24:15;;;;;;;12.25;4.50;;;;;;;18.10;90.39;101772.13;5130754;27;20482;-59
2023/06/16 06:26:44;;;;;;;9.45;3.90;;;;;;;18.24;89.46;101765.66;5130895;27;20039;-59
2023/06/16 06:29:15;;;;;;;11.30;4.85;;;;;;;18.45;86.15;101770.16;5112699;27;20043;-59
2023/06/16 06:31:45;;;;;;;11.20;4.13;;;;;;;18.59;84.98;101765.34;5131694;27;20410;-60
2023/06/16 06:34:13;;;;;;;9.05;3.58;;;;;;;18.77;80.75;101771.91;5130810;27;20092;-60
2023/06/16 06:36:42;;;;;;;7.53;3.60;;;;;;;18.96;82.54;101774.72;5131580;27;20387;-60
2023/06/16 06:39:10;;;;;;;12.65;4.80;;;;;;;19.20;81.93;101777.06;5131009;27;20550;-60
2023/06/16 06:41:40;;;;;;;9.50;3.80;;;;;;;19.38;81.25;101782.63;5134226;27;20130;-59
2023/06/16 06:44:09;;;;;;;10.60;3.83;;;;;;;19.58;73.57;101782.69;5130945;27;20124;-60
2023/06/16 06:46:37;;;;;;;9.13;3.88;;;;;;;19.78;73.93;101780.88;5131490;27;20043;-60
2023/06/16 06:49:06;;;;;;;8.55;3.78;;;;;;;19.93;72.86;101786.69;5131105;27;20055;-60
2023/06/16 06:51:35;;;;;;;10.50;3.65;;;;;;;20.08;70.64;101776.47;5132101;27;20112;-62
2023/06/16 06:54:04;;;;;;;7.35;3.28;;;;;;;20.30;70.69;101780.69;5133870;27;20051;-59
2023/06/16 06:56:32;;;;;;;6.07;3.53;;;;;;;20.51;70.59;101782.38;5133421;27;21134;-60
2023/06/16 06:59:00;;;;;;;7.18;3.67;;;;;;;20.73;70.98;101787.41;5131386;27;20406;-60
2023/06/16 07:01:28;;;;;;;7.95;3.58;;;;;;;20.90;69.07;101780.47;5130115;27;20057;-59
2023/06/16 07:03:56;;;;;;;6.57;3.47;;;;;;;21.10;68.28;101786.63;5130686;27;20047;-60
2023/06/16 07:06:26;;;;;;;7.78;3.33;;;;;;;21.26;66.41;101785.13;5129856;27;20039;-60
2023/06/16 07:08:54;;;;;;;6.70;2.95;;;;;;;21.51;66.52;101782.75;5130434;27;20039;-60
2023/06/16 07:11:28;;;;;;;8.27;3.88;;;;;;;21.70;65.61;101788.00;5133424;27;20481;-59
2023/06/16 07:13:57;;;;;;;9.13;3.47;;;;;;;21.87;63.42;101786.38;5133666;27;20554;-60
2023/06/16 07:16:25;;;;;;;7.53;3.45;;;;;;;21.99;59.71;101789.69;5113799;27;20047;-60
2023/06/16 07:18:53;;;;;;;8.18;3.63;;;;;;;22.07;59.70;101773.69;5130791;27;20122;-60
2023/06/16 07:21:21;;;;;;;6.38;3.17;;;;;;;22.28;60.91;101777.88;5129471;27;20039;-60
2023/06/16 07:23:51;;;;;;;6.05;3.25;;;;;;;22.47;60.93;101776.91;5129672;27;20122;-60
2023/06/16 07:26:23;;;;;;;6.82;3.60;;;;;;;22.56;57.79;101775.94;5129139;27;20074;-61
2023/06/16 07:28:51;;;;;;;6.72;3.25;;;;;;;22.68;57.76;101779.22;5128748;27;20038;-62
2023/06/16 07:31:19;;;;;;;6.57;3.00;;;;;;;22.75;57.38;101782.09;5130154;27;20055;-60
2023/06/16 07:33:47;;;;;;;7.88;3.28;;;;;;;22.78;54.79;101785.31;5132425;27;20050;-60
2023/06/16 07:36:16;;;;;;;6.72;3.05;;;;;;;22.81;58.22;101791.34;5133455;27;20087;-60
2023/06/16 07:38:44;;;;;;;8.75;3.45;;;;;;;22.96;55.70;101790.63;5133285;27;20088;-60
2023/06/16 07:41:13;;;;;;;5.90;2.85;;;;;;;23.07;54.86;101792.19;5129074;27;20047;-61
2023/06/16 07:43:41;;;;;;;7.85;3.25;;;;;;;23.25;54.86;101804.72;5131198;27;20055;-61
2023/06/16 07:46:09;;;;;;;7.88;3.30;;;;;;;23.40;51.18;101792.38;5131214;27;20062;-62
2023/06/16 07:48:40;;;;;;;7.80;3.05;;;;;;;23.54;50.83;101793.56;5130365;27;20067;-62
2023/06/16 07:51:09;;;;;;;5.75;3.38;;;;;;;23.51;49.24;101799.28;5133286;27;20179;-61
2023/06/16 07:53:39;;;;;;;7.72;2.95;;;;;;;23.72;50.14;101790.78;5133151;27;20142;-60
2023/06/16 07:56:08;;;;;;;6.28;3.33;;;;;;;23.80;46.02;101790.81;5132844;27;20050;-60
2023/06/16 07:58:38;;;;;;;6.05;3.05;;;;;;;23.96;47.31;101789.19;5132932;27;20035;-60
2023/06/16 08:01:06;;;;;;;8.95;3.28;;;;;;;24.10;45.06;101793.88;5132939;27;20047;-61
2023/06/16 08:03:34;;;;;;;5.95;3.22;;;;;;;24.08;45.94;101782.47;5113601;28;20117;-60
2023/06/16 08:06:04;;;;;;;5.80;3.00;;;;;;;24.41;47.09;101779.78;5129217;28;20515;-61
2023/06/16 08:08:32;;;;;;;5.97;3.38;;;;;;;24.66;45.47;101778.97;5130603;28;20485;-61
2023/06/16 08:11:05;;;;;;;7.75;3.88;;;;;;;24.74;44.91;101779.78;5133131;28;20050;-60
2023/06/16 08:13:33;;;;;;;8.27;3.20;;;;;;;25.00;45.46;101775.19;5133000;28;20394;-59
2023/06/16 08:16:03;;;;;;;7.43;3.22;;;;;;;25.23;46.73;101775.28;5133222;28;20043;-60
2023/06/16 08:18:31;;;;;;;7.03;3.00;;;;;;;25.40;43.77;101773.38;5132116;28;20078;-60
2023/06/16 08:21:04;;;;;;;6.63;3.25;;;;;;;25.63;40.65;101774.25;5129299;28;20071;-60
2023/06/16 08:23:35;;;;;;;6.95;2.88;;;;;;;25.80;41.80;101780.38;5132193;28;20047;-60
2023/06/16 08:26:05;;;;;;;5.03;2.97;;;;;;;25.77;37.23;101769.97;5129493;28;20047;-52
2023/06/16 08:28:34;;;;;;;6.88;3.05;;;;;;;25.56;37.40;101769.75;5129120;28;20058;-54
2023/06/16 08:31:03;;;;;;;6.30;3.38;;;;;;;25.71;36.83;101764.44;5130647;28;20079;-51
2023/06/16 08:33:32;;;;;;;6.22;3.15;;;;;;;25.80;36.39;101772.28;5114387;28;20058;-49
2023/06/16 08:36:00;;;;;;;6.32;2.80;;;;;;;26.20;38.83;101763.28;5130799;28;20130;-53
2023/06/16 08:38:28;;;;;;;10.15;3.70;;;;;;;26.55;37.81;101759.06;5129216;28;20125;-54
2023/06/16 08:40:56;;;;;;;7.00;3.20;;;;;;;26.73;36.84;101761.44;5112393;27;20043;-54
2023/06/16 08:43:26;;;;;;;9.65;3.40;;;;;;;26.90;36.43;101759.41;5132919;27;20043;-54
2023/06/16 08:45:56;;;;;;;7.03;3.38;;;;;;;26.99;39.74;101752.88;5133252;27;20149;-53
2023/06/16 08:48:26;;;;;;;6.63;3.33;;;;;;;27.03;35.55;101750.66;5134963;27;20044;-53
2023/06/16 08:50:59;;;;;;;7.88;3.50;;;;;;;27.18;37.12;101749.81;5136516;27;20451;-52
2023/06/16 08:53:31;;;;;;;6.03;3.10;;;;;;;27.25;36.48;101751.53;5136135;27;20062;-53
2023/06/16 08:56:00;;;;;;;6.30;3.42;;;;;;;27.44;34.10;101749.31;5134910;27;20507;-54
2023/06/16 08:58:29;;;;;;;7.18;3.20;;;;;;;27.62;35.66;101747.03;5132813;27;20059;-54
2023/06/16 09:00:59;;;;;;;7.25;3.38;;;;;;;27.70;34.15;101742.53;5134951;27;20043;-55
2023/06/16 09:03:32;;;;;;;8.38;3.22;;;;;;;27.99;33.79;101741.53;5136388;27;20129;-55
2023/06/16 09:06:01;;;;;;;6.20;3.20;;;;;;;28.05;33.16;101750.81;5132779;27;20035;-53
2023/06/16 09:08:29;;;;;;;5.20;2.90;;;;;;;28.19;32.61;101744.47;5133678;27;20043;-53
2023/06/16 09:10:58;;;;;;;5.50;2.70;;;;;;;28.34;31.10;101755.19;5133800;27;20050;-52
2023/06/16 09:13:29;;;;;;;4.47;2.60;;;;;;;28.54;30.77;101752.63;5132724;27;20519;-59
2023/06/16 09:15:59;;;;;;;5.13;2.80;;;;;;;28.68;30.23;101750.88;5133009;27;20040;-61
2023/06/16 09:18:37;;;;;;;6.82;3.50;;;;;;;28.57;29.92;101746.81;5132551;27;20268;-60
2023/06/16 09:21:09;;;;;;;5.47;3.20;;;;;;;28.64;30.13;101744.19;5131916;27;20104;-60
2023/06/16 09:23:38;;;;;;;7.43;2.95;;;;;;;28.80;31.45;101748.44;5134529;27;20039;-54
2023/06/16 09:26:13;;;;;;;6.40;2.92;;;;;;;28.93;32.52;101747.66;5117561;27;20104;-53
2023/06/16 09:28:44;;;;;;;5.97;3.05;;;;;;;29.38;31.16;101749.97;5135667;27;20054;-55
2023/06/16 09:31:15;;;;;;;6.60;3.20;;;;;;;29.71;30.91;101741.94;5132522;27;20050;-55
2023/06/16 09:33:44;;;;;;;5.97;3.30;;;;;;;29.33;29.14;101740.59;5134160;27;20539;-55
2023/06/16 09:36:27;;;;;;;6.82;3.28;;;;;;;29.55;29.44;101745.03;5135732;27;20394;-55
2023/06/16 09:38:55;;;;;;;5.95;3.03;;;;;;;29.58;30.08;101733.78;5135606;27;20050;-55
2023/06/16 09:41:23;;;;;;;4.25;2.80;;;;;;;29.60;30.75;101737.94;5131143;27;20047;-55
2023/06/16 09:43:52;;;;;;;5.82;3.30;;;;;;;29.58;30.35;101734.59;5132652;27;20043;-55
2023/06/16 09:46:20;;;;;;;6.40;3.20;;;;;;;29.68;29.84;101739.63;5135654;27;20545;-55
2023/06/16 09:48:51;;;;;;;7.95;3.60;;;;;;;29.91;30.17;101739.25;5135736;27;20047;-54
2023/06/16 09:51:21;;;;;;;5.65;3.08;;;;;;;30.12;29.51;101740.94;5135324;27;20046;-55
2023/06/16 09:53:51;;;;;;;8.25;3.30;;;;;;;30.30;30.96;101731.34;5131864;27;20761;-56
2023/06/16 09:56:20;;;;;;;7.95;3.15;;;;;;;30.54;28.17;101731.75;5132071;27;20436;-56
2023/06/16 09:58:49;;;;;;;8.00;3.42;;;;;;;30.57;26.15;101732.16;5135652;27;20422;-55
2023/06/16 10:01:20;;;;;;;5.93;2.92;;;;;;;30.70;26.77;101725.03;5135377;27;20039;-55
2023/06/16 10:03:53;;;;;;;4.95;2.55;;;;;;;30.55;24.56;101725.28;5135306;27;20062;-55
2023/06/16 10:06:21;;;;;;;5.70;3.00;;;;;;;30.78;25.38;101720.19;5131392;27;20432;-55
2023/06/16 10:08:50;;;;;;;5.50;2.92;;;;;;;31.01;26.02;101719.69;5113654;27;20047;-56
2023/06/16 10:11:20;;;;;;;5.03;3.22;;;;;;;31.17;26.80;101715.69;5114582;27;20074;-55
2023/06/16 10:13:52;;;;;;;6.40;3.05;;;;;;;31.26;27.71;101718.13;5135091;27;20053;-55
2023/06/16 10:16:25;;;;;;;7.00;3.10;;;;;;;31.13;27.46;101711.72;5133131;27;20043;-55
2023/06/16 10:18:59;;;;;;;6.88;3.10;;;;;;;31.49;25.67;101696.66;5131854;27;20043;-56
2023/06/16 10:21:28;;;;;;;6.03;3.20;;;;;;;31.36;25.29;101710.38;5116589;27;20051;-56
2023/06/16 10:23:56;;;;;;;6.47;3.30;;;;;;;31.80;25.42;101703.19;5135036;27;20035;-56
2023/06/16 10:26:26;;;;;;;6.15;3.50;;;;;;;31.88;25.24;101709.38;5134867;27;20050;-55
2023/06/16 10:28:58;;;;;;;4.70;2.88;;;;;;;31.46;25.32;101710.69;5113789;27;20051;-56
2023/06/16 10:31:28;;;;;;;6.15;3.30;;;;;;;31.53;25.38;101697.91;5131660;27;20047;-55
2023/06/16 10:33:59;;;;;;;4.75;3.10;;;;;;;31.28;25.17;101700.56;5113557;27;20055;-56
2023/06/16 10:36:30;;;;;;;5.38;3.33;;;;;;;31.34;24.86;101698.88;5131159;27;20041;-60
2023/06/16 10:39:01;;;;;;;6.75;3.28;;;;;;;31.25;24.91;101701.03;5131887;27;20043;-60
2023/06/16 10:41:30;;;;;;;5.63;3.10;;;;;;;31.51;25.35;101694.56;5130482;27;20056;-55
2023/06/16 10:44:28;;;;;;;7.20;3.40;;;;;;;31.75;24.55;101694.84;5133881;27;20571;-55
2023/06/16 10:47:28;;;;;;;5.03;3.03;;;;;;;31.97;24.61;101691.75;5131902;27;20042;-55
2023/06/16 10:50:02;;;;;;;6.55;3.28;;;;;;;32.22;24.43;101680.88;5134341;27;20051;-56
2023/06/16 10:52:52;;;;;;;6.38;3.15;;;;;;;32.69;24.94;101683.06;5130303;27;20054;-55
2023/06/16 10:55:33;;;;;;;4.63;2.90;;;;;;;32.50;24.46;101679.53;5131216;27;20050;-56
2023/06/16 10:58:21;;;;;;;4.23;2.63;;;;;;;32.21;23.94;101678.38;5133013;27;20114;-54
2023/06/16 11:00:59;;;;;;;6.72;3.40;;;;;;;32.23;22.65;101677.06;5134448;27;20096;-56
2023/06/16 11:03:35;;;;;;;5.78;3.10;;;;;;;32.32;25.91;101670.28;5134187;27;20727;-57
2023/06/16 11:06:06;;;;;;;6.65;3.50;;;;;;;32.10;24.15;101678.03;5134243;27;20047;-57
2023/06/16 11:08:50;;;;;;;7.30;3.20;;;;;;;31.91;23.78;101673.59;5134549;27;20057;-57
2023/06/16 11:11:18;;;;;;;5.40;3.30;;;;;;;32.67;23.79;101679.75;5133446;27;20088;-56
2023/06/16 11:13:47;;;;;;;5.80;3.40;;;;;;;32.96;24.69;101671.88;5130385;27;20039;-57
2023/06/16 11:16:15;;;;;;;8.95;3.47;;;;;;;33.08;22.98;101680.94;5113387;27;20047;-56
2023/06/16 11:18:43;;;;;;;6.68;3.50;;;;;;;33.22;23.49;101669.84;5134027;27;20047;-56
2023/06/16 11:21:13;;;;;;;6.78;3.08;;;;;;;33.34;23.02;101673.47;5133948;27;20035;-57
2023/06/16 11:23:43;;;;;;;5.78;3.42;;;;;;;33.57;22.51;101666.38;5133323;27;20039;-58
2023/06/16 11:26:15;;;;;;;5.28;3.30;;;;;;;33.99;22.23;101664.44;5129334;27;20047;-56
2023/06/16 11:28:43;;;;;;;6.20;3.63;;;;;;;34.34;22.94;101660.03;5131019;27;20043;-56
2023/06/16 11:31:14;;;;;;;5.65;3.28;;;;;;;33.81;22.42;101653.66;5133381;27;20047;-56
2023/06/16 11:33:43;;;;;;;8.02;3.72;;;;;;;33.98;23.71;101656.50;5133544;27;20562;-57